createdAt,value
2018-02-11T00:00:44.450Z,6.27
2018-02-11T00:03:12.115Z,8.30
2018-02-11T00:05:39.795Z,9.40
2018-02-11T00:08:07.671Z,7.70
2018-02-11T00:10:35.393Z,8.37
2018-02-11T00:13:03.061Z,7.87
2018-02-11T00:15:30.781Z,7.70
2018-02-11T00:17:58.454Z,7.13
2018-02-11T00:20:26.266Z,7.90
2018-02-11T00:22:54.110Z,7.67
2018-02-11T00:25:21.776Z,7.93
2018-02-11T00:27:49.530Z,7.87
2018-02-11T00:30:17.213Z,7.53
2018-02-11T00:32:44.923Z,7.63
2018-02-11T00:35:12.601Z,7.07
2018-02-11T00:37:45.904Z,7.90
2018-02-11T00:40:13.618Z,6.90
2018-02-11T00:42:41.309Z,7.13
2018-02-11T00:45:09.081Z,5.60
2018-02-11T00:47:36.776Z,7.60
2018-02-11T00:50:04.564Z,6.40
2018-02-11T00:52:32.336Z,6.60
2018-02-11T00:55:00.028Z,5.83
2018-02-11T00:57:27.783Z,7.00
2018-02-11T00:59:55.507Z,5.97
2018-02-11T01:02:23.300Z,8.47
2018-02-11T01:04:51.151Z,7.57
2018-02-11T01:07:18.873Z,5.93
2018-02-11T01:09:46.789Z,6.77
2018-02-11T01:12:14.498Z,9.47
2018-02-11T01:14:42.242Z,8.30
2018-02-11T01:17:09.929Z,8.17
2018-02-11T01:19:37.769Z,8.20
2018-02-11T01:22:05.552Z,9.47
2018-02-11T01:24:33.293Z,9.30
2018-02-11T01:27:02.257Z,8.20
2018-02-11T01:29:30.019Z,12.83
2018-02-11T01:31:57.791Z,9.20
2018-02-11T01:34:25.582Z,6.67
2018-02-11T01:36:53.289Z,7.17
2018-02-11T01:39:21.074Z,7.30
2018-02-11T01:41:48.833Z,8.93
2018-02-11T01:44:16.592Z,8.80
2018-02-11T01:46:44.314Z,7.37
2018-02-11T01:49:12.185Z,8.23
2018-02-11T01:51:39.876Z,9.97
2018-02-11T01:54:07.559Z,10.93
2018-02-11T01:56:35.317Z,9.10
2018-02-11T01:59:02.981Z,7.63
2018-02-11T02:01:30.703Z,7.70
2018-02-11T02:03:58.486Z,6.70
2018-02-11T02:06:26.271Z,6.70
2018-02-11T02:08:53.955Z,6.50
2018-02-11T02:11:21.667Z,7.07
2018-02-11T02:13:49.376Z,6.97
2018-02-11T02:16:17.126Z,6.03
2018-02-11T02:18:44.852Z,6.33
2018-02-11T02:21:12.566Z,7.00
2018-02-11T02:23:40.313Z,7.30
2018-02-11T02:26:07.987Z,8.50
2018-02-11T02:28:35.772Z,7.13
2018-02-11T02:31:03.448Z,7.60
2018-02-11T02:33:31.218Z,6.53
2018-02-11T02:35:58.948Z,6.73
2018-02-11T02:38:26.730Z,7.97
2018-02-11T02:40:54.509Z,5.93
2018-02-11T02:43:22.245Z,6.50
2018-02-11T02:45:49.928Z,4.80
2018-02-11T02:48:17.622Z,5.17
2018-02-11T02:50:45.341Z,6.73
2018-02-11T02:53:13.024Z,7.07
2018-02-11T02:55:40.808Z,6.17
2018-02-11T02:58:08.492Z,7.77
2018-02-11T03:00:36.241Z,5.83
2018-02-11T03:03:03.940Z,7.33
2018-02-11T03:05:31.774Z,7.57
2018-02-11T03:07:59.446Z,8.10
2018-02-11T03:10:27.193Z,7.93
2018-02-11T03:12:54.936Z,7.27
2018-02-11T03:15:22.579Z,6.57
2018-02-11T03:17:50.320Z,5.87
2018-02-11T03:20:18.067Z,7.30
2018-02-11T03:22:45.780Z,6.00
2018-02-11T03:25:13.515Z,6.33
2018-02-11T03:27:41.189Z,5.50
2018-02-11T03:30:08.970Z,6.27
2018-02-11T03:32:36.640Z,5.13
2018-02-11T03:35:04.476Z,6.03
2018-02-11T03:37:32.164Z,6.37
2018-02-11T03:39:59.883Z,6.07
2018-02-11T03:42:27.624Z,7.80
2018-02-11T03:44:55.619Z,8.23
2018-02-11T03:47:23.354Z,7.30
2018-02-11T03:49:51.052Z,5.30
2018-02-11T03:52:18.786Z,8.00
2018-02-11T03:54:46.515Z,6.30
2018-02-11T03:57:14.253Z,6.07
2018-02-11T03:59:41.912Z,6.57
2018-02-11T04:02:09.780Z,5.57
2018-02-11T04:04:37.448Z,5.33
2018-02-11T04:07:05.188Z,5.03
2018-02-11T04:09:32.870Z,4.37
2018-02-11T04:12:00.599Z,5.27
2018-02-11T04:14:28.321Z,6.53
2018-02-11T04:16:56.044Z,5.80
2018-02-11T04:19:23.711Z,7.27
2018-02-11T04:21:51.432Z,5.00
2018-02-11T04:24:19.202Z,5.47
2018-02-11T04:26:46.943Z,5.47
2018-02-11T04:29:14.729Z,6.87
2018-02-11T04:31:42.419Z,7.87
2018-02-11T04:34:10.269Z,6.90
2018-02-11T04:36:38.020Z,5.20
2018-02-11T04:39:05.763Z,5.40
2018-02-11T04:41:33.488Z,6.63
2018-02-11T04:44:01.269Z,6.23
2018-02-11T04:46:28.990Z,7.57
2018-02-11T04:48:56.724Z,7.40
2018-02-11T04:51:24.441Z,7.20
2018-02-11T04:53:52.149Z,6.20
2018-02-11T04:56:19.817Z,7.50
2018-02-11T04:58:47.552Z,5.53
2018-02-11T05:01:15.315Z,5.00
2018-02-11T05:03:43.009Z,6.77
2018-02-11T05:06:10.737Z,4.93
2018-02-11T05:08:38.463Z,5.60
2018-02-11T05:11:06.183Z,4.80
2018-02-11T05:13:35.273Z,6.20
2018-02-11T05:16:03.004Z,4.83
2018-02-11T05:18:30.705Z,6.23
2018-02-11T05:20:58.359Z,6.80
2018-02-11T05:23:26.074Z,5.53
2018-02-11T05:25:53.723Z,5.00
2018-02-11T05:28:22.592Z,4.70
2018-02-11T05:30:50.275Z,5.67
2018-02-11T05:33:18.727Z,6.93
2018-02-11T05:35:46.416Z,6.57
2018-02-11T05:38:14.087Z,7.17
2018-02-11T05:40:41.824Z,5.57
2018-02-11T05:43:09.520Z,6.00
2018-02-11T05:45:37.241Z,6.00
2018-02-11T05:48:04.978Z,5.17
2018-02-11T05:50:32.702Z,5.57
2018-02-11T05:53:00.455Z,5.30
2018-02-11T05:55:28.243Z,6.20
2018-02-11T05:57:55.935Z,4.77
2018-02-11T06:00:23.643Z,5.53
2018-02-11T06:02:51.403Z,6.13
2018-02-11T06:05:19.156Z,5.33
2018-02-11T06:07:46.907Z,5.63
2018-02-11T06:10:14.626Z,5.87
2018-02-11T06:12:42.305Z,5.63
2018-02-11T06:15:10.023Z,5.90
2018-02-11T06:17:37.726Z,6.67
2018-02-11T06:20:05.456Z,8.20
2018-02-11T06:22:33.159Z,7.50
2018-02-11T06:25:00.848Z,8.40
2018-02-11T06:27:28.564Z,10.50
2018-02-11T06:29:56.317Z,9.50
2018-02-11T06:32:24.047Z,10.57
2018-02-11T06:34:52.012Z,8.97
2018-02-11T06:37:19.758Z,8.17
2018-02-11T06:39:47.469Z,9.37
2018-02-11T06:42:15.221Z,9.10
2018-02-11T06:44:46.668Z,9.07
2018-02-11T06:47:14.524Z,8.43
2018-02-11T06:49:42.700Z,9.10
2018-02-11T06:52:10.477Z,7.53
2018-02-11T06:54:38.232Z,7.83
2018-02-11T06:57:06.230Z,7.70
2018-02-11T06:59:34.185Z,6.47
2018-02-11T07:02:02.067Z,7.40
2018-02-11T07:04:29.867Z,6.30
2018-02-11T07:06:57.624Z,7.77
2018-02-11T07:09:25.392Z,10.40
2018-02-11T07:11:53.175Z,10.80
2018-02-11T07:14:21.323Z,9.73
2018-02-11T07:16:49.089Z,9.77
2018-02-11T07:19:16.827Z,7.40
2018-02-11T07:21:44.597Z,7.63
2018-02-11T07:24:12.328Z,7.13
2018-02-11T07:26:40.048Z,7.67
2018-02-11T07:29:07.806Z,7.00
2018-02-11T07:31:35.495Z,8.03
2018-02-11T07:34:03.216Z,8.20
2018-02-11T07:36:30.930Z,11.10
2018-02-11T07:39:02.039Z,11.13
2018-02-11T07:41:34.461Z,10.53
2018-02-11T07:44:04.421Z,9.67
2018-02-11T07:46:35.332Z,9.90
2018-02-11T07:49:05.278Z,7.57
2018-02-11T07:51:34.987Z,8.47
2018-02-11T07:54:04.618Z,8.77
2018-02-11T07:56:33.516Z,10.47
2018-02-11T07:59:03.671Z,12.47
2018-02-11T08:01:32.052Z,16.50
2018-02-11T08:04:03.011Z,17.13
2018-02-11T08:06:32.942Z,18.77
2018-02-11T08:09:03.721Z,19.63
2018-02-11T08:11:34.165Z,23.37
2018-02-11T08:14:05.299Z,22.37
2018-02-11T08:16:37.384Z,23.43
2018-02-11T08:19:08.651Z,24.30
2018-02-11T08:21:37.801Z,23.97
2018-02-11T08:24:06.120Z,21.10
2018-02-11T08:26:41.664Z,22.17
2018-02-11T08:29:11.334Z,22.97
2018-02-11T08:31:42.006Z,24.67
2018-02-11T08:34:10.694Z,22.57
2018-02-11T08:36:40.739Z,23.10
2018-02-11T08:39:09.566Z,25.30
2018-02-11T08:41:37.755Z,22.27
2018-02-11T08:44:07.173Z,26.33
2018-02-11T08:46:37.483Z,25.77
2018-02-11T08:49:08.162Z,22.60
2018-02-11T08:51:36.914Z,25.00
2018-02-11T08:54:05.497Z,24.90
2018-02-11T08:56:34.512Z,25.00
2018-02-11T08:59:03.024Z,22.57
2018-02-11T09:01:32.467Z,20.70
2018-02-11T09:04:02.068Z,22.97
2018-02-11T09:06:32.012Z,21.70
2018-02-11T09:09:00.619Z,19.57
2018-02-11T09:11:28.695Z,21.80
2018-02-11T09:13:57.266Z,19.20
2018-02-11T09:16:27.177Z,18.00
2018-02-11T09:18:56.259Z,19.00
2018-02-11T09:21:27.790Z,20.00
2018-02-11T09:23:57.754Z,17.60
2018-02-11T09:26:26.656Z,19.10
2018-02-11T09:28:56.089Z,18.80
2018-02-11T09:31:29.006Z,20.20
2018-02-11T09:33:58.952Z,19.40
2018-02-11T09:36:29.569Z,19.33
2018-02-11T09:38:57.843Z,18.60
2018-02-11T09:41:27.326Z,19.90
2018-02-11T09:43:56.169Z,17.30
2018-02-11T09:46:25.336Z,18.53
2018-02-11T09:48:54.177Z,15.90
2018-02-11T09:51:22.666Z,18.97
2018-02-11T09:53:50.975Z,17.73
2018-02-11T09:56:20.339Z,18.40
2018-02-11T09:58:49.866Z,17.63
2018-02-11T10:01:19.852Z,17.13
2018-02-11T10:03:48.910Z,15.00
2018-02-11T10:06:17.157Z,17.10
2018-02-11T10:08:45.076Z,18.23
2018-02-11T10:11:14.193Z,17.67
2018-02-11T10:13:43.578Z,17.27
2018-02-11T10:16:12.526Z,19.53
2018-02-11T10:18:41.596Z,16.97
2018-02-11T10:21:11.002Z,17.57
2018-02-11T10:23:40.999Z,15.43
2018-02-11T10:26:10.800Z,17.00
2018-02-11T10:28:39.434Z,16.27
2018-02-11T10:31:08.699Z,17.07
2018-02-11T10:33:37.703Z,15.93
2018-02-11T10:36:06.741Z,16.50
2018-02-11T10:38:35.614Z,16.47
2018-02-11T10:41:05.347Z,14.27
2018-02-11T10:43:34.774Z,17.27
2018-02-11T10:46:03.312Z,18.63
2018-02-11T10:48:32.645Z,15.57
2018-02-11T10:51:02.494Z,15.80
2018-02-11T10:53:32.167Z,16.47
2018-02-11T10:56:03.151Z,16.40
2018-02-11T10:58:34.531Z,15.33
2018-02-11T11:01:04.884Z,15.50
2018-02-11T11:03:33.520Z,18.30
2018-02-11T11:06:02.399Z,16.27
2018-02-11T11:08:33.006Z,15.40
2018-02-11T11:11:04.573Z,12.13
2018-02-11T11:13:34.230Z,15.10
2018-02-11T11:16:03.783Z,14.73
2018-02-11T11:18:33.030Z,14.90
2018-02-11T11:21:02.387Z,15.43
2018-02-11T11:23:32.526Z,14.63
2018-02-11T11:26:02.147Z,15.17
2018-02-11T11:28:32.271Z,13.03
2018-02-11T11:31:00.575Z,14.20
2018-02-11T11:33:28.921Z,13.27
2018-02-11T11:35:56.934Z,12.50
2018-02-11T11:38:24.948Z,13.00
2018-02-11T11:40:52.883Z,11.83
2018-02-11T11:43:20.793Z,12.83
2018-02-11T11:45:49.069Z,11.80
2018-02-11T11:48:17.087Z,10.77
2018-02-11T11:50:45.176Z,9.67
2018-02-11T11:53:12.985Z,11.60
2018-02-11T11:55:41.049Z,9.17
2018-02-11T11:58:09.336Z,10.87
2018-02-11T12:00:37.250Z,10.87
2018-02-11T12:03:05.266Z,10.03
2018-02-11T12:05:33.810Z,11.33
2018-02-11T12:08:01.528Z,12.00
2018-02-11T12:10:29.485Z,10.63
2018-02-11T12:12:57.254Z,11.50
2018-02-11T12:15:25.121Z,11.83
2018-02-11T12:17:52.897Z,12.23
2018-02-11T12:20:20.605Z,10.20
2018-02-11T12:22:48.359Z,9.70
2018-02-11T12:25:16.485Z,10.13
2018-02-11T12:27:44.958Z,8.80
2018-02-11T12:30:12.651Z,9.37
2018-02-11T12:32:40.436Z,8.53
2018-02-11T12:35:08.930Z,9.90
2018-02-11T12:37:36.658Z,10.47
2018-02-11T12:40:04.459Z,10.23
2018-02-11T12:42:32.177Z,10.50
2018-02-11T12:44:59.840Z,10.30
2018-02-11T12:47:27.759Z,9.97
2018-02-11T12:49:56.555Z,10.03
2018-02-11T12:52:24.286Z,10.20
2018-02-11T12:54:51.983Z,9.33
2018-02-11T12:57:19.730Z,9.40
2018-02-11T12:59:47.439Z,9.60
2018-02-11T13:02:15.300Z,9.77
2018-02-11T13:04:44.062Z,9.17
2018-02-11T13:07:11.788Z,11.00
2018-02-11T13:09:39.556Z,9.90
2018-02-11T13:12:07.295Z,8.27
2018-02-11T13:14:35.061Z,8.27
2018-02-11T13:17:02.806Z,9.33
2018-02-11T13:19:30.593Z,8.50
2018-02-11T13:21:58.294Z,8.87
2018-02-11T13:24:26.417Z,8.50
2018-02-11T13:26:54.810Z,8.77
2018-02-11T13:29:22.527Z,10.27
2018-02-11T13:31:50.211Z,8.27
2018-02-11T13:34:18.320Z,8.87
2018-02-11T13:36:46.089Z,9.37
2018-02-11T13:39:14.806Z,11.00
2018-02-11T13:41:42.577Z,10.17
2018-02-11T13:44:10.376Z,20.70
2018-02-11T13:46:38.105Z,10.67
2018-02-11T13:49:05.790Z,10.70
2018-02-11T13:51:33.558Z,9.80
2018-02-11T13:54:02.121Z,10.23
2018-02-11T13:56:29.872Z,8.47
2018-02-11T13:58:57.572Z,8.30
2018-02-11T14:01:25.318Z,8.87
2018-02-11T14:03:53.098Z,9.33
2018-02-11T14:06:21.089Z,8.57
2018-02-11T14:08:48.779Z,9.03
2018-02-11T14:11:16.492Z,9.13
2018-02-11T14:13:44.210Z,7.13
2018-02-11T14:16:11.908Z,7.90
2018-02-11T14:18:40.220Z,9.87
2018-02-11T14:21:07.882Z,8.37
2018-02-11T14:23:35.670Z,8.70
2018-02-11T14:26:03.398Z,8.60
2018-02-11T14:28:31.074Z,8.40
2018-02-11T14:30:58.871Z,8.10
2018-02-11T14:33:26.721Z,8.40
2018-02-11T14:35:54.453Z,9.43
2018-02-11T14:38:22.192Z,9.57
2018-02-11T14:40:49.951Z,7.93
2018-02-11T14:43:17.704Z,7.93
2018-02-11T14:45:45.445Z,12.30
2018-02-11T14:48:13.670Z,12.87
2018-02-11T14:50:41.663Z,10.63
2018-02-11T14:53:09.441Z,10.37
2018-02-11T14:55:37.362Z,10.63
2018-02-11T14:58:05.070Z,8.57
2018-02-11T15:00:32.818Z,12.57
2018-02-11T15:03:00.959Z,16.03
2018-02-11T15:05:28.769Z,43.80
2018-02-11T15:07:56.568Z,32.70
2018-02-11T15:10:24.426Z,13.70
2018-02-11T15:12:52.134Z,8.00
2018-02-11T15:15:19.869Z,7.67
2018-02-11T15:17:47.642Z,8.53
2018-02-11T15:20:15.442Z,8.87
2018-02-11T15:22:43.220Z,8.87
2018-02-11T15:25:11.003Z,8.20
2018-02-11T15:27:38.818Z,7.30
2018-02-11T15:30:06.626Z,8.23
2018-02-11T15:32:34.485Z,6.87
2018-02-11T15:35:03.528Z,5.60
2018-02-11T15:37:31.292Z,7.77
2018-02-11T15:39:59.237Z,6.23
2018-02-11T15:42:28.042Z,5.83
2018-02-11T15:44:56.535Z,6.70
2018-02-11T15:47:25.271Z,6.40
2018-02-11T15:49:54.251Z,7.40
2018-02-11T15:52:22.090Z,7.57
2018-02-11T15:54:49.827Z,7.20
2018-02-11T15:57:17.644Z,13.67
2018-02-11T15:59:45.626Z,9.37
2018-02-11T16:02:13.417Z,8.00
2018-02-11T16:04:41.236Z,7.57
2018-02-11T16:07:09.717Z,10.53
2018-02-11T16:09:37.482Z,7.50
2018-02-11T16:12:06.647Z,8.23
2018-02-11T16:14:34.381Z,7.50
2018-02-11T16:17:02.166Z,5.67
2018-02-11T16:19:29.941Z,4.70
2018-02-11T16:21:58.174Z,4.77
2018-02-11T16:24:26.142Z,4.03
2018-02-11T16:26:54.002Z,3.90
2018-02-11T16:29:21.728Z,4.43
2018-02-11T16:31:49.534Z,2.90
2018-02-11T16:34:18.431Z,4.13
2018-02-11T16:36:47.822Z,3.03
2018-02-11T16:39:15.946Z,2.90
2018-02-11T16:41:45.214Z,2.60
2018-02-11T16:44:13.382Z,2.27
2018-02-11T16:46:42.684Z,2.43
2018-02-11T16:49:12.177Z,1.60
2018-02-11T16:51:40.240Z,2.30
2018-02-11T16:54:08.310Z,1.10
2018-02-11T16:56:36.252Z,1.80
2018-02-11T16:59:04.696Z,1.17
2018-02-11T17:01:32.632Z,2.23
2018-02-11T17:04:00.555Z,1.63
2018-02-11T17:06:28.894Z,1.70
2018-02-11T17:08:57.229Z,2.07
2018-02-11T17:11:25.427Z,2.30
2018-02-11T17:13:53.624Z,2.70
2018-02-11T17:16:21.696Z,3.87
2018-02-11T17:18:49.856Z,2.80
2018-02-11T17:21:18.695Z,4.10
2018-02-11T17:23:47.138Z,4.10
2018-02-11T17:26:15.578Z,4.70
2018-02-11T17:28:43.378Z,5.53
2018-02-11T17:31:11.662Z,5.07
2018-02-11T17:33:39.877Z,4.57
2018-02-11T17:36:07.874Z,5.27
2018-02-11T17:38:35.892Z,6.20
2018-02-11T17:41:04.830Z,4.53
2018-02-11T17:43:32.591Z,5.40
2018-02-11T17:46:00.868Z,9.80
2018-02-11T17:48:28.665Z,10.03
2018-02-11T17:50:58.366Z,7.87
2018-02-11T17:53:26.432Z,6.30
2018-02-11T17:55:54.254Z,4.80
2018-02-11T17:58:22.022Z,3.53
2018-02-11T18:00:50.118Z,3.50
2018-02-11T18:03:18.665Z,3.63
2018-02-11T18:05:46.716Z,3.27
2018-02-11T18:08:14.721Z,3.50
2018-02-11T18:10:42.868Z,4.20
2018-02-11T18:13:11.970Z,2.47
2018-02-11T18:15:40.097Z,2.80
2018-02-11T18:18:08.160Z,2.87
2018-02-11T18:20:36.133Z,2.50
2018-02-11T18:23:04.144Z,3.03
2018-02-11T18:25:33.115Z,3.17
2018-02-11T18:28:01.118Z,2.57
2018-02-11T18:30:29.853Z,3.37
2018-02-11T18:32:59.091Z,4.80
2018-02-11T18:35:27.076Z,4.17
2018-02-11T18:37:55.137Z,3.40
2018-02-11T18:40:24.088Z,2.90
2018-02-11T18:42:53.473Z,2.63
2018-02-11T18:45:21.605Z,4.13
2018-02-11T18:47:49.775Z,3.27
2018-02-11T18:50:17.804Z,2.30
2018-02-11T18:52:45.744Z,2.50
2018-02-11T18:55:14.133Z,1.97
2018-02-11T18:57:42.371Z,2.97
2018-02-11T19:00:11.262Z,3.27
2018-02-11T19:02:39.995Z,3.43
2018-02-11T19:05:07.935Z,2.50
2018-02-11T19:07:36.938Z,2.70
2018-02-11T19:10:07.089Z,2.63
2018-02-11T19:12:35.985Z,2.40
2018-02-11T19:15:07.173Z,2.63
2018-02-11T19:17:37.451Z,2.73
2018-02-11T19:20:07.340Z,2.43
2018-02-11T19:22:35.596Z,1.80
2018-02-11T19:25:04.837Z,2.50
2018-02-11T19:27:32.908Z,2.50
2018-02-11T19:30:01.366Z,3.17
2018-02-11T19:32:29.411Z,2.50
2018-02-11T19:34:57.358Z,2.93
2018-02-11T19:37:25.601Z,1.87
2018-02-11T19:39:54.621Z,2.10
2018-02-11T19:42:22.949Z,5.20
2018-02-11T19:44:52.229Z,6.13
2018-02-11T19:47:20.500Z,4.27
2018-02-11T19:49:49.785Z,3.83
2018-02-11T19:52:17.882Z,3.50
2018-02-11T19:54:45.725Z,3.13
2018-02-11T19:57:14.119Z,2.37
2018-02-11T19:59:42.295Z,3.60
2018-02-11T20:02:10.367Z,4.10
2018-02-11T20:04:38.391Z,4.47
2018-02-11T20:07:06.562Z,3.60
2018-02-11T20:09:35.200Z,4.17
2018-02-11T20:12:03.272Z,4.30
2018-02-11T20:14:31.244Z,4.47
2018-02-11T20:16:59.929Z,4.63
2018-02-11T20:19:28.096Z,4.57
2018-02-11T20:21:56.165Z,4.80
2018-02-11T20:24:24.101Z,4.63
2018-02-11T20:26:52.059Z,5.70
2018-02-11T20:29:20.411Z,4.63
2018-02-11T20:31:48.562Z,4.20
2018-02-11T20:34:16.733Z,3.20
2018-02-11T20:36:44.806Z,4.13
2018-02-11T20:39:12.773Z,3.30
2018-02-11T20:41:41.260Z,3.30
2018-02-11T20:44:10.417Z,5.93
2018-02-11T20:46:38.506Z,4.20
2018-02-11T20:49:06.571Z,4.33
2018-02-11T20:51:35.796Z,4.33
2018-02-11T20:54:03.974Z,3.60
2018-02-11T20:56:33.909Z,3.30
2018-02-11T20:59:01.993Z,2.90
2018-02-11T21:01:29.906Z,3.83
2018-02-11T21:03:58.201Z,3.17
2018-02-11T21:06:26.239Z,3.33
2018-02-11T21:08:57.181Z,4.77
2018-02-11T21:11:25.697Z,6.17
2018-02-11T21:13:53.970Z,6.20
2018-02-11T21:16:22.667Z,6.80
2018-02-11T21:18:50.676Z,6.57
2018-02-11T21:21:18.751Z,5.40
2018-02-11T21:23:46.894Z,6.00
2018-02-11T21:26:14.949Z,5.47
2018-02-11T21:28:43.639Z,4.70
2018-02-11T21:31:11.851Z,5.53
2018-02-11T21:33:39.756Z,5.90
2018-02-11T21:36:07.797Z,5.13
2018-02-11T21:38:35.818Z,5.53
2018-02-11T21:41:04.670Z,5.70
2018-02-11T21:43:32.683Z,4.80
2018-02-11T21:46:01.460Z,4.80
2018-02-11T21:48:29.854Z,6.37
2018-02-11T21:50:57.799Z,5.80
2018-02-11T21:53:25.597Z,4.73
2018-02-11T21:55:53.651Z,5.53
2018-02-11T21:58:22.062Z,5.73
2018-02-11T22:00:50.121Z,4.77
2018-02-11T22:03:17.957Z,5.17
2018-02-11T22:05:46.145Z,4.43
2018-02-11T22:08:14.224Z,3.30
2018-02-11T22:10:42.558Z,4.20
2018-02-11T22:13:11.259Z,4.30
2018-02-11T22:15:39.340Z,4.17
2018-02-11T22:18:07.427Z,4.30
2018-02-11T22:20:35.499Z,6.37
2018-02-11T22:23:03.570Z,6.07
2018-02-11T22:25:31.550Z,5.70
2018-02-11T22:27:59.551Z,4.03
2018-02-11T22:30:27.299Z,4.37
2018-02-11T22:32:55.317Z,4.67
2018-02-11T22:35:23.178Z,4.43
2018-02-11T22:37:51.153Z,4.97
2018-02-11T22:40:18.987Z,4.17
2018-02-11T22:42:47.122Z,6.47
2018-02-11T22:45:15.195Z,3.57
2018-02-11T22:47:43.743Z,3.43
2018-02-11T22:50:11.782Z,4.70
2018-02-11T22:52:39.774Z,4.40
2018-02-11T22:55:07.750Z,3.10
2018-02-11T22:57:35.736Z,4.83
2018-02-11T23:00:04.244Z,4.87
2018-02-11T23:02:32.211Z,3.07
2018-02-11T23:05:00.117Z,2.43
2018-02-11T23:07:27.999Z,3.40
2018-02-11T23:09:55.866Z,3.50
2018-02-11T23:12:23.738Z,3.70
2018-02-11T23:14:51.713Z,3.60
2018-02-11T23:17:19.625Z,3.80
2018-02-11T23:19:51.990Z,4.20
2018-02-11T23:22:20.064Z,4.00
2018-02-11T23:24:47.996Z,5.20
2018-02-11T23:27:16.104Z,4.87
2018-02-11T23:29:44.228Z,4.33
2018-02-11T23:32:12.145Z,4.00
2018-02-11T23:34:40.886Z,4.33
2018-02-11T23:37:09.418Z,3.90
2018-02-11T23:39:37.484Z,6.00
2018-02-11T23:42:05.594Z,4.70
2018-02-11T23:44:33.632Z,6.33
2018-02-11T23:47:01.698Z,7.17
2018-02-11T23:49:29.420Z,5.93
2018-02-11T23:51:57.402Z,6.90
2018-02-11T23:54:25.510Z,7.53
2018-02-11T23:56:54.015Z,6.97
2018-02-11T23:59:21.857Z,8.80
